Terminal Aerodrome Forecast
Issued by NWS Huntsville, AL

Home | Current Version | Previous Version | Text Only | Print | Product List | Glossary On
Versions: 1 2 3 4 5 6 7 8 9 10 11 12 13 14 15 16 17 18 19 20 21 22 23 24 25 26 27 28 29 30 31 32 33 34 35 36 37 38 39 40 41 42 43 44
000
FTUS44 KHUN 241559 AAD
TAFHSV
TAF AMD
KHSV 241559Z 2416/2512 32005KT P6SM SCT005 OVC015
     FM241800 33006KT P6SM BKN025
     FM242100 33008KT P6SM SKC
     FM250100 36003KT P6SM SKC=

USA.gov is the U.S. government's official web portal to all federal, state and local government web resources and services.